Terminal Aerodrome Forecast
Issued by NWS Melbourne, FL

Home | Current Version | Previous Version | Text Only | Print | Product List | Glossary On
Versions: 1 2 3 4 5 6 7 8 9 10 11 12 13 14 15 16 17 18 19 20 21 22 23 24 25 26 27 28 29 30 31
000
FTUS42 KMLB 062104 AAA
TAFMCO
TAF AMD
KMCO 062104Z 0621/0718 25008KT P6SM VCTS SCT050CB SCT090 BKN250
      TEMPO 0621/0622 VRB15G35KT 1SM +TSRA BKN025CB
     FM062200 28006KT P6SM VCTS SCT025CB BKN035 BKN090
      TEMPO 0622/0623 VRB15G25KT 2SM TSRA BKN025CB
     FM070300 17003KT P6SM FEW060 SCT250
     FM071400 18004KT P6SM FEW030 SCT250=

USA.gov is the U.S. government's official web portal to all federal, state and local government web resources and services.